Time;durP1;ratioP1;P1;durP2;ratioP2;P2;SDS_P1;SDS_P2;PMS_P1;PMS_P2;Temp;Humidity;BMP_temperature;BMP_pressure;BME280_temperature;BME280_humidity;BME280_pressure;Samples;Min_cycle;Max_cycle;Signal;HPM_P1;HPM_P2
2022/04/16 00:01:49;;;;;;;;;19.00;18.60;;;;;13.15;64.16;99604.31;5061414;28;8885;-78
2022/04/16 00:04:18;;;;;;;;;24.40;20.60;;;;;13.18;64.54;99595.59;5081475;28;8830;-81
2022/04/16 00:06:47;;;;;;;;;19.40;18.60;;;;;13.14;64.21;99601.75;5084721;28;8842;-78
2022/04/16 00:09:16;;;;;;;;;20.00;18.60;;;;;13.09;64.52;99593.06;5089253;28;8886;-77
2022/04/16 00:11:46;;;;;;;;;24.75;21.50;;;;;12.97;65.51;99592.31;5088112;28;8953;-78
2022/04/16 00:14:15;;;;;;;;;23.50;18.75;;;;;12.97;65.93;99591.44;5070566;28;8854;-79
2022/04/16 00:16:45;;;;;;;;;21.25;20.50;;;;;12.98;65.28;99586.16;5054048;28;8850;-79
2022/04/16 00:19:14;;;;;;;;;24.50;23.75;;;;;13.02;66.28;99585.28;5071005;28;8869;-79
2022/04/16 00:21:43;;;;;;;;;24.75;20.75;;;;;13.09;64.74;99582.59;5087445;28;8919;-80
2022/04/16 00:24:12;;;;;;;;;24.75;24.75;;;;;12.98;65.56;99580.06;5070092;28;8850;-79
2022/04/16 00:26:41;;;;;;;;;21.00;19.50;;;;;12.96;65.70;99589.69;5018282;28;8827;-77
2022/04/16 00:29:12;;;;;;;;;27.25;24.75;;;;;12.81;66.77;99588.94;5050350;28;8899;-78
2022/04/16 00:31:45;;;;;;;;;27.50;24.25;;;;;12.80;66.96;99578.50;5051734;28;8975;-78
2022/04/16 00:34:14;;;;;;;;;23.75;21.75;;;;;12.70;67.28;99576.84;5082665;28;8845;-77
2022/04/16 00:36:44;;;;;;;;;31.50;27.75;;;;;12.73;66.63;99575.06;5051014;28;8935;-78
2022/04/16 00:39:13;;;;;;;;;29.75;28.00;;;;;12.76;67.17;99567.19;5083303;28;8884;-78
2022/04/16 00:41:43;;;;;;;;;24.75;23.75;;;;;12.76;67.46;99568.94;5049913;28;8925;-78
2022/04/16 00:44:13;;;;;;;;;24.75;24.25;;;;;12.74;67.47;99562.84;5049907;28;8857;-78
2022/04/16 00:46:41;;;;;;;;;30.00;27.25;;;;;12.82;66.90;99564.53;5054470;28;8844;-79
2022/04/16 00:49:10;;;;;;;;;27.50;27.50;;;;;12.77;68.00;99558.44;5070209;28;8849;-77
2022/04/16 00:51:40;;;;;;;;;28.75;26.25;;;;;12.82;67.26;99554.03;5050865;28;8921;-78
2022/04/16 00:54:09;;;;;;;;;36.50;32.50;;;;;12.77;68.02;99549.75;5050212;28;8880;-78
2022/04/16 00:56:38;;;;;;;;;27.50;25.25;;;;;12.72;68.72;99551.53;5064975;28;8850;-79
2022/04/16 00:59:07;;;;;;;;;29.50;26.25;;;;;12.61;68.93;99554.25;5048402;28;8916;-80
2022/04/16 01:01:37;;;;;;;;;36.25;29.75;;;;;12.62;69.41;99554.22;5065144;28;8960;-80
2022/04/16 01:04:06;;;;;;;;;28.00;26.50;;;;;12.72;68.83;99555.03;5048516;28;8972;-77
2022/04/16 01:06:38;;;;;;;;;30.00;30.00;;;;;12.66;69.15;99557.69;5048136;28;8846;-80
2022/04/16 01:09:07;;;;;;;;;30.50;27.75;;;;;12.56;69.04;99556.91;5048490;28;8854;-79
2022/04/16 01:11:36;;;;;;;;;24.75;23.75;;;;;12.54;69.09;99552.56;5034640;28;8834;-78
2022/04/16 01:14:04;;;;;;;;;32.75;27.25;;;;;12.51;69.29;99560.44;5049401;28;8866;-78
2022/04/16 01:16:33;;;;;;;;;30.75;30.25;;;;;12.47;69.87;99546.50;5048580;28;8846;-78
2022/04/16 01:19:04;;;;;;;;;36.00;32.00;;;;;12.54;69.68;99556.03;5032056;28;8860;-76
2022/04/16 01:21:33;;;;;;;;;31.25;29.25;;;;;12.47;70.91;99551.75;5031393;28;8932;-79
2022/04/16 01:24:05;;;;;;;;;33.25;30.25;;;;;12.45;70.19;99551.75;5014404;28;8954;-77
2022/04/16 01:26:34;;;;;;;;;32.00;29.75;;;;;12.40;70.70;99571.84;5030966;28;8941;-78
2022/04/16 01:29:03;;;;;;;;;29.50;26.75;;;;;12.40;70.78;99566.63;5050625;28;8946;-79
2022/04/16 01:31:31;;;;;;;;;23.25;20.75;;;;;12.43;70.54;99561.34;5066212;28;8861;-77
2022/04/16 01:34:01;;;;;;;;;35.75;31.00;;;;;12.54;70.10;99557.81;5066150;28;8861;-78
2022/04/16 01:36:31;;;;;;;;;25.60;23.20;;;;;12.84;68.86;99560.13;5032409;28;8892;-77
2022/04/16 01:39:00;;;;;;;;;30.25;29.50;;;;;12.91;68.43;99565.31;5050396;28;8878;-79
2022/04/16 01:41:30;;;;;;;;;30.50;28.25;;;;;13.14;67.72;99555.47;5047873;28;8984;-78
2022/04/16 01:43:58;;;;;;;;;25.25;24.50;;;;;13.44;65.61;99561.28;5047766;28;8854;-78
2022/04/16 01:46:27;;;;;;;;;30.50;26.00;;;;;13.70;64.80;99554.84;5046382;28;8986;-79
2022/04/16 01:48:56;;;;;;;;;32.50;27.25;;;;;13.74;64.92;99557.41;5030768;28;8943;-77
2022/04/16 01:51:25;;;;;;;;;27.75;25.50;;;;;13.90;63.94;99565.94;5058785;28;9333;-80
2022/04/16 01:53:54;;;;;;;;;32.25;31.25;;;;;14.09;62.98;99563.06;5050895;28;8860;-78
2022/04/16 01:56:22;;;;;;;;;30.50;28.00;;;;;14.17;62.33;99562.03;5067111;28;8871;-78
2022/04/16 01:58:53;;;;;;;;;24.20;20.60;;;;;14.11;61.84;99556.88;5051400;28;8840;-78
2022/04/16 02:01:22;;;;;;;;;26.20;23.00;;;;;14.26;61.27;99558.41;5050708;28;8840;-78
2022/04/16 02:03:51;;;;;;;;;24.00;21.20;;;;;14.14;61.71;99558.56;5050754;28;9621;-78
2022/04/16 02:06:20;;;;;;;;;23.20;21.20;;;;;14.12;61.72;99563.88;5067341;28;8878;-79
2022/04/16 02:08:49;;;;;;;;;32.50;29.75;;;;;14.11;61.99;99561.28;5067417;28;8960;-78
2022/04/16 02:11:18;;;;;;;;;26.60;26.00;;;;;14.07;62.16;99570.94;5067506;28;8978;-79
2022/04/16 02:13:46;;;;;;;;;27.50;27.50;;;;;14.04;62.48;99564.00;5050137;28;8932;-78
2022/04/16 02:16:16;;;;;;;;;28.00;24.80;;;;;14.22;61.36;99567.22;5067027;28;9511;-79
2022/04/16 02:18:45;;;;;;;;;26.50;26.00;;;;;13.85;63.00;99575.59;5037090;28;8839;-78
2022/04/16 02:21:14;;;;;;;;;26.75;26.50;;;;;13.90;62.85;99576.41;5084957;28;8854;-77
2022/04/16 02:23:42;;;;;;;;;29.25;27.50;;;;;14.10;62.03;99583.13;5068063;28;8885;-78
2022/04/16 02:26:11;;;;;;;;;26.50;23.75;;;;;14.24;61.20;99578.56;5033796;28;8838;-79
2022/04/16 02:28:39;;;;;;;;;28.60;24.00;;;;;14.26;61.00;99576.78;5053662;28;8834;-79
2022/04/16 02:31:08;;;;;;;;;27.00;25.20;;;;;14.30;60.96;99570.59;5069642;28;8952;-79
2022/04/16 02:33:38;;;;;;;;;27.60;23.80;;;;;14.37;60.48;99568.75;5069699;28;8959;-78
2022/04/16 02:36:07;;;;;;;;;26.20;22.80;;;;;13.86;61.99;99574.72;5069855;28;8870;-80
2022/04/16 02:38:36;;;;;;;;;25.40;23.00;;;;;14.16;60.95;99581.28;5054721;28;8865;-78
2022/04/16 02:41:04;;;;;;;;;18.00;18.00;;;;;14.35;60.42;99576.63;5088299;28;8865;-77
2022/04/16 02:43:33;;;;;;;;;24.40;24.20;;;;;14.48;59.93;99581.66;5087369;28;8830;-79
2022/04/16 02:48:49;;;;;;;;;23.00;19.60;;;;;14.75;58.35;99577.78;5103581;28;8870;-76
2022/04/16 02:51:18;;;;;;;;;23.20;19.60;;;;;14.78;58.21;99583.84;5068693;28;8870;-78
2022/04/16 02:53:46;;;;;;;;;23.40;22.00;;;;;14.79;58.45;99579.47;5066326;28;8864;-78
2022/04/16 02:56:15;;;;;;;;;25.60;23.20;;;;;14.75;58.40;99586.50;5066304;28;8920;-78
2022/04/16 02:58:44;;;;;;;;;22.00;20.80;;;;;14.60;59.14;99586.78;5081724;28;8836;-80
2022/04/16 03:01:12;;;;;;;;;20.00;18.80;;;;;14.55;59.31;99589.41;5045880;28;9690;-77
2022/04/16 03:03:41;;;;;;;;;22.60;20.60;;;;;14.65;58.98;99594.56;5029444;28;8866;-78
2022/04/16 03:06:11;;;;;;;;;25.40;22.00;;;;;14.67;59.13;99588.41;5029548;28;8846;-77
2022/04/16 03:08:40;;;;;;;;;24.25;23.00;;;;;14.66;59.22;99584.03;5013390;28;8850;-78
2022/04/16 03:11:08;;;;;;;;;22.25;19.00;;;;;14.68;59.29;99582.25;5029664;28;8850;-78
2022/04/16 03:13:37;;;;;;;;;25.00;21.80;;;;;14.59;59.83;99579.78;5046037;28;8905;-78
2022/04/16 03:18:52;;;;;;;;;28.00;26.00;;;;;14.75;59.10;99601.41;5029223;28;8877;-77
2022/04/16 03:21:22;;;;;;;;;65.25;51.75;;;;;14.81;59.39;99601.28;5046753;28;8967;-77
2022/04/16 03:23:50;;;;;;;;;30.50;29.75;;;;;14.84;59.23;99593.38;5046076;28;9685;-78
2022/04/16 03:26:19;;;;;;;;;26.25;26.25;;;;;14.82;59.04;99587.28;5030135;28;8850;-78
2022/04/16 03:28:48;;;;;;;;;30.00;29.00;;;;;14.81;59.45;99593.41;4996557;28;8896;-78
2022/04/16 03:31:17;;;;;;;;;32.75;27.25;;;;;14.80;59.60;99591.66;5045884;28;8869;-78
2022/04/16 03:33:46;;;;;;;;;30.00;21.50;;;;;14.79;59.84;99589.97;5063583;28;8926;-78
2022/04/16 03:36:15;;;;;;;;;26.40;26.00;;;;;14.79;60.17;99589.97;5048742;28;8865;-77
2022/04/16 03:38:45;;;;;;;;;31.50;26.50;;;;;14.66;60.57;99586.66;5063793;28;8857;-78
2022/04/16 03:41:14;;;;;;;;;26.75;24.00;;;;;14.47;61.29;99599.19;5030198;28;8982;-78
2022/04/16 03:43:42;;;;;;;;;28.25;28.00;;;;;14.21;62.42;99610.94;5048667;28;8860;-79
2022/04/16 03:46:11;;;;;;;;;29.00;28.20;;;;;14.11;63.40;99613.72;5048800;28;9590;-77
2022/04/16 03:48:40;;;;;;;;;27.20;23.40;;;;;14.03;63.20;99621.69;5064992;28;8961;-78
2022/04/16 03:51:10;;;;;;;;;28.60;24.60;;;;;13.90;64.10;99613.09;5080833;28;8861;-78
2022/04/16 03:53:39;;;;;;;;;27.80;25.40;;;;;13.48;65.43;99604.91;5048089;28;9729;-77
2022/04/16 04:01:40;;;;;;;;;47.00;39.75;;;;;12.31;71.81;99637.28;5046614;28;8841;-78
2022/04/16 04:04:10;;;;;;;;;69.75;55.00;;;;;11.98;73.52;99635.72;5049605;28;8887;-78
2022/04/16 04:06:40;;;;;;;;;60.25;49.00;;;;;11.89;73.90;99647.06;5047571;28;8849;-79
2022/04/16 04:09:09;;;;;;;;;53.75;44.00;;;;;11.74;75.10;99652.31;5048886;28;8922;-77
2022/04/16 04:11:40;;;;;;;;;61.25;49.75;;;;;11.62;75.90;99654.09;5051607;28;8869;-79
2022/04/16 04:14:09;;;;;;;;;53.75;42.75;;;;;11.69;75.78;99655.84;5049060;28;8854;-79
2022/04/16 04:16:38;;;;;;;;;43.75;38.75;;;;;11.61;76.53;99657.59;5032515;28;8846;-78
2022/04/16 04:19:07;;;;;;;;;63.00;51.25;;;;;11.59;76.93;99648.91;5032541;28;8854;-77
2022/04/16 04:21:35;;;;;;;;;64.50;52.00;;;;;11.57;77.24;99649.78;5015682;28;8850;-80
2022/04/16 04:24:05;;;;;;;;;58.00;47.50;;;;;11.45;77.15;99659.38;5048836;28;8854;-79
2022/04/16 04:26:33;;;;;;;;;50.25;41.25;;;;;11.41;77.69;99648.97;5032952;28;8842;-79
2022/04/16 04:29:03;;;;;;;;;38.75;34.75;;;;;11.38;77.94;99648.94;5034485;28;8854;-77
2022/04/16 04:31:32;;;;;;;;;30.50;27.00;;;;;11.35;77.42;99656.81;5049235;28;9103;-78
2022/04/16 04:34:01;;;;;;;;;27.50;24.50;;;;;11.20;77.79;99665.53;5049419;28;8952;-79
2022/04/16 04:36:30;;;;;;;;;32.75;27.75;;;;;11.23;77.50;99660.31;5015950;28;8979;-78
2022/04/16 04:38:59;;;;;;;;;27.25;26.00;;;;;11.20;77.45;99666.38;5048735;28;8858;-77
2022/04/16 04:41:27;;;;;;;;;29.00;28.75;;;;;11.26;76.92;99668.13;5048852;28;8857;-78
2022/04/16 04:43:56;;;;;;;;;29.25;25.50;;;;;11.19;77.23;99669.00;5048805;28;8850;-79
2022/04/16 04:46:26;;;;;;;;;26.25;26.00;;;;;11.15;77.50;99664.66;5082053;28;8860;-80
2022/04/16 04:48:54;;;;;;;;;28.25;26.25;;;;;11.20;76.92;99662.91;5032513;28;8903;-78
2022/04/16 04:51:23;;;;;;;;;27.25;27.25;;;;;11.27;76.68;99660.28;5066755;28;8919;-78
2022/04/16 04:53:52;;;;;;;;;28.50;22.75;;;;;11.46;75.86;99660.28;5051523;28;8898;-78
2022/04/16 04:56:20;;;;;;;;;26.50;25.25;;;;;11.50;75.62;99665.47;5065823;28;8893;-76
2022/04/16 04:58:49;;;;;;;;;30.00;28.25;;;;;11.63;74.61;99661.09;5033029;28;8840;-78
2022/04/16 05:01:18;;;;;;;;;28.50;27.75;;;;;11.75;73.86;99660.16;5055987;28;8838;-78
2022/04/16 05:03:48;;;;;;;;;30.00;28.50;;;;;11.80;73.58;99668.00;5103879;28;8826;-78
2022/04/16 05:06:17;;;;;;;;;26.50;26.00;;;;;11.79;73.54;99667.13;5086581;28;8915;-79
2022/04/16 05:08:45;;;;;;;;;32.75;31.00;;;;;11.79;73.90;99679.31;5070907;28;8850;-78
2022/04/16 05:11:14;;;;;;;;;25.50;22.00;;;;;11.85;72.78;99679.28;5086434;28;8874;-79
2022/04/16 05:13:43;;;;;;;;;27.75;27.75;;;;;11.81;73.04;99683.66;5052618;28;8870;-77
2022/04/16 05:16:13;;;;;;;;;31.75;31.25;;;;;11.84;73.02;99677.56;5069012;28;8830;-78
2022/04/16 05:18:42;;;;;;;;;30.00;26.00;;;;;11.74;73.32;99686.28;5085771;28;8858;-80
2022/04/16 05:21:12;;;;;;;;;34.25;27.75;;;;;11.71;73.31;99682.81;5068789;28;8850;-79
2022/04/16 05:23:41;;;;;;;;;29.75;27.75;;;;;11.67;73.21;99691.53;5085641;28;8850;-79
2022/04/16 05:26:11;;;;;;;;;25.25;23.25;;;;;11.82;72.48;99684.53;5070006;28;8846;-78
2022/04/16 05:28:40;;;;;;;;;21.75;20.25;;;;;11.73;73.67;99680.19;5085328;28;8888;-77
2022/04/16 05:31:09;;;;;;;;;27.25;25.75;;;;;11.66;73.45;99688.94;5067455;28;8939;-79
2022/04/16 05:36:25;;;;;;;;;25.25;23.50;;;;;11.67;73.23;99683.69;5027839;28;8984;-79
2022/04/16 05:38:54;;;;;;;;;27.50;27.50;;;;;11.73;72.97;99680.19;5027347;28;8844;-78
2022/04/16 05:41:22;;;;;;;;;33.75;29.75;;;;;11.87;72.59;99682.75;5027553;28;8887;-77
2022/04/16 05:43:53;;;;;;;;;32.50;29.00;;;;;11.77;72.93;99683.69;5027791;28;8828;-79
2022/04/16 05:46:21;;;;;;;;;29.00;26.75;;;;;11.73;73.18;99680.19;4988606;28;8861;-79
2022/04/16 05:48:50;;;;;;;;;32.00;29.75;;;;;11.77;72.40;99678.44;4988255;28;8864;-82
2022/04/16 05:51:19;;;;;;;;;28.25;27.25;;;;;11.89;72.86;99683.66;4925061;28;8878;-78
2022/04/16 05:53:50;;;;;;;;;33.50;33.50;;;;;11.93;71.67;99677.56;4939677;28;8872;-78
2022/04/16 05:56:21;;;;;;;;;29.75;27.75;;;;;11.96;72.27;99674.06;4987916;28;8950;-78
2022/04/16 05:58:49;;;;;;;;;32.00;31.50;;;;;11.88;72.65;99681.91;4987889;28;8857;-78
2022/04/16 06:01:18;;;;;;;;;32.50;30.25;;;;;11.95;72.09;99686.28;4955903;28;8872;-77
2022/04/16 06:03:47;;;;;;;;;42.25;36.75;;;;;11.96;72.33;99682.75;4971504;28;8837;-78
2022/04/16 06:06:16;;;;;;;;;34.25;33.25;;;;;12.11;71.32;99673.13;4971639;28;8882;-80
2022/04/16 06:08:45;;;;;;;;;40.00;32.00;;;;;12.18;71.68;99685.31;5025776;28;8860;-77
2022/04/16 06:11:17;;;;;;;;;36.75;34.00;;;;;12.03;72.02;99686.22;5026875;28;8832;-79
2022/04/16 06:13:46;;;;;;;;;37.50;34.00;;;;;11.94;71.91;99688.88;5026652;28;9022;-78
2022/04/16 06:16:15;;;;;;;;;35.50;31.50;;;;;11.92;72.51;99695.88;5043282;28;8856;-78
2022/04/16 06:18:43;;;;;;;;;37.50;35.00;;;;;11.93;72.92;99693.25;5077128;28;8955;-77
2022/04/16 06:21:12;;;;;;;;;35.50;33.50;;;;;11.90;73.07;99699.34;5064829;28;8845;-78
2022/04/16 06:23:41;;;;;;;;;37.50;32.00;;;;;11.88;72.75;99693.22;5049665;28;8840;-79
2022/04/16 06:26:10;;;;;;;;;32.75;30.75;;;;;11.85;72.56;99688.00;5047422;28;8864;-79
2022/04/16 06:28:40;;;;;;;;;38.00;32.25;;;;;11.91;72.58;99687.16;5064503;28;8861;-79
2022/04/16 06:31:08;;;;;;;;;36.75;32.00;;;;;11.91;72.03;99681.94;5031242;28;8829;-77
2022/04/16 06:33:37;;;;;;;;;28.00;26.00;;;;;11.88;70.42;99690.59;5048270;28;8853;-77
2022/04/16 06:36:06;;;;;;;;;29.25;28.50;;;;;12.08;67.98;99690.56;5081489;28;8853;-80
2022/04/16 06:38:34;;;;;;;;;27.60;24.80;;;;;12.23;67.60;99671.34;5064802;28;9724;-78
2022/04/16 06:41:03;;;;;;;;;24.50;23.75;;;;;12.26;67.11;99675.66;5047864;28;8860;-78
2022/04/16 06:43:31;;;;;;;;;31.50;27.75;;;;;12.29;66.84;99673.91;5066766;28;8965;-78
2022/04/16 06:46:04;;;;;;;;;28.00;26.50;;;;;12.21;67.28;99682.66;5018000;28;8898;-80
2022/04/16 06:48:32;;;;;;;;;26.25;25.50;;;;;12.24;67.46;99680.91;5066196;28;8971;-79
2022/04/16 06:51:01;;;;;;;;;30.00;27.25;;;;;12.43;65.69;99683.41;5049234;28;8921;-81
2022/04/16 06:53:30;;;;;;;;;29.25;27.50;;;;;12.47;63.94;99680.75;5065925;28;8871;-78
2022/04/16 06:56:00;;;;;;;;;31.00;28.75;;;;;12.46;63.77;99681.66;5065843;28;8863;-79
2022/04/16 06:58:29;;;;;;;;;29.80;26.00;;;;;12.53;62.93;99681.59;5065735;28;8860;-79
2022/04/16 07:00:58;;;;;;;;;19.20;19.00;;;;;12.68;63.12;99676.25;5039070;28;8864;-79
2022/04/16 07:03:28;;;;;;;;;19.60;16.60;;;;;12.94;62.60;99676.06;5085734;28;8920;-79
2022/04/16 07:05:57;;;;;;;;;15.40;15.00;;;;;13.08;60.24;99678.59;5069242;28;8837;-77
2022/04/16 07:08:26;;;;;;;;;22.60;18.80;;;;;12.81;59.19;99705.84;5086173;28;8874;-77
2022/04/16 07:10:54;;;;;;;;;22.40;21.20;;;;;12.83;60.31;99685.75;5053092;28;8984;-79
2022/04/16 07:13:23;;;;;;;;;15.20;13.20;;;;;13.11;58.94;99688.16;5103308;28;8865;-78
2022/04/16 07:15:52;;;;;;;;;22.20;20.00;;;;;13.33;59.14;99694.13;5032800;28;8838;-76
2022/04/16 07:18:23;;;;;;;;;23.40;21.20;;;;;13.11;60.41;99699.50;5066904;28;8850;-80
2022/04/16 07:20:53;;;;;;;;;19.80;19.80;;;;;12.99;61.99;99686.53;5063332;28;8967;-78
2022/04/16 07:23:22;;;;;;;;;29.00;25.00;;;;;12.96;62.54;99689.16;5046458;28;9010;-78
2022/04/16 07:25:50;;;;;;;;;26.00;25.80;;;;;13.06;63.38;99683.84;5085484;28;8838;-78
2022/04/16 07:28:22;;;;;;;;;26.60;23.60;;;;;12.85;64.47;99700.59;5052039;28;8854;-77
2022/04/16 07:30:52;;;;;;;;;25.60;25.00;;;;;12.70;65.57;99694.56;5045477;28;8855;-78
2022/04/16 07:33:21;;;;;;;;;29.40;25.60;;;;;12.39;67.21;99700.00;5029035;28;8978;-77
2022/04/16 07:35:50;;;;;;;;;26.75;21.50;;;;;12.23;67.48;99693.97;5045738;28;8874;-77
2022/04/16 07:38:20;;;;;;;;;32.00;27.50;;;;;12.20;68.29;99699.22;5012595;28;8932;-77
2022/04/16 07:40:50;;;;;;;;;24.75;24.00;;;;;12.11;68.99;99707.97;5027525;28;9627;-77
2022/04/16 07:43:18;;;;;;;;;28.25;26.00;;;;;12.07;71.32;99696.66;5049075;28;8878;-79
2022/04/16 07:45:47;;;;;;;;;40.75;36.00;;;;;12.23;72.24;99705.31;5052130;28;8872;-78
2022/04/16 07:48:16;;;;;;;;;37.00;34.25;;;;;12.36;72.34;99703.53;5035825;28;8964;-78
2022/04/16 07:50:44;;;;;;;;;40.50;35.00;;;;;12.40;72.76;99718.31;5052362;28;8958;-78
2022/04/16 07:53:13;;;;;;;;;34.50;34.00;;;;;12.18;73.81;99720.16;5032313;28;8848;-78
2022/04/16 07:55:43;;;;;;;;;31.75;30.00;;;;;12.40;72.22;99707.84;5015725;28;8909;-78
2022/04/16 07:58:12;;;;;;;;;30.00;27.25;;;;;12.48;72.52;99711.28;5012982;28;8882;-79
2022/04/16 08:00:41;;;;;;;;;35.00;33.75;;;;;12.79;71.29;99716.31;5028916;28;8836;-78
2022/04/16 08:03:09;;;;;;;;;33.25;32.25;;;;;12.77;71.73;99712.84;5031861;28;8856;-78
2022/04/16 08:05:38;;;;;;;;;43.75;34.75;;;;;12.72;71.82;99713.75;5066900;28;8864;-78
2022/04/16 08:08:09;;;;;;;;;34.00;31.25;;;;;12.66;71.36;99715.56;5052668;28;8869;-77
2022/04/16 08:10:38;;;;;;;;;37.75;34.50;;;;;12.62;71.90;99708.56;5054337;28;8968;-78
2022/04/16 08:13:08;;;;;;;;;41.50;35.75;;;;;12.56;71.60;99710.38;5067340;28;8880;-78
2022/04/16 08:15:37;;;;;;;;;36.00;32.50;;;;;13.04;70.54;99709.16;5016038;28;8857;-77
2022/04/16 08:18:07;;;;;;;;;34.25;32.25;;;;;13.17;69.00;99714.28;5049191;28;8853;-78
2022/04/16 08:20:35;;;;;;;;;31.75;30.00;;;;;13.04;68.90;99716.13;5049892;28;9003;-78
2022/04/16 08:23:05;;;;;;;;;32.50;31.50;;;;;13.23;68.73;99711.59;5050318;28;8856;-79
2022/04/16 08:25:46;;;;;;;;;38.25;32.00;;;;;13.07;68.42;99714.34;5049946;28;8868;-77
2022/04/16 08:28:16;;;;;;;;;35.75;34.00;;;;;13.44;67.67;99723.69;5050272;28;8860;-79
2022/04/16 08:30:45;;;;;;;;;35.00;31.75;;;;;13.34;67.48;99722.03;5051168;28;8853;-77
2022/04/16 08:33:15;;;;;;;;;33.75;32.25;;;;;13.24;68.87;99719.47;5051253;28;9650;-79
2022/04/16 08:35:45;;;;;;;;;29.33;28.33;;;;;13.14;69.31;99723.06;5051162;28;9661;-78
2022/04/16 08:38:14;;;;;;;;;34.25;32.00;;;;;13.38;68.25;99724.63;5015475;28;9006;-78
2022/04/16 08:40:43;;;;;;;;;29.75;28.25;;;;;13.49;67.11;99718.41;5083470;28;8841;-78
2022/04/16 08:43:16;;;;;;;;;26.80;26.40;;;;;13.76;66.29;99714.63;5017479;28;8845;-78
2022/04/16 08:45:44;;;;;;;;;31.50;30.75;;;;;13.22;67.94;99731.69;5065876;28;8888;-79
2022/04/16 08:48:15;;;;;;;;;31.50;31.00;;;;;12.80;69.85;99720.69;5050164;28;8857;-79
2022/04/16 08:50:44;;;;;;;;;29.25;27.25;;;;;12.57;70.34;99717.31;5084451;28;8861;-78
2022/04/16 08:53:13;;;;;;;;;24.75;24.00;;;;;12.44;71.67;99724.41;5067869;28;8929;-78
2022/04/16 08:55:41;;;;;;;;;30.00;29.25;;;;;12.19;72.32;99714.06;5067393;28;8829;-78
2022/04/16 08:58:10;;;;;;;;;35.50;31.00;;;;;11.99;73.08;99711.50;5031533;28;8965;-78
2022/04/16 09:00:41;;;;;;;;;32.00;30.00;;;;;11.98;73.86;99722.81;5031466;28;8878;-81
2022/04/16 09:03:10;;;;;;;;;34.00;32.00;;;;;11.83;75.54;99715.91;5004683;28;8887;-78
2022/04/16 09:05:39;;;;;;;;;39.50;35.00;;;;;11.70;76.03;99714.16;4956364;28;9754;-78
2022/04/16 09:08:08;;;;;;;;;39.50;33.75;;;;;11.66;76.36;99723.78;4988783;28;9625;-79
2022/04/16 09:10:40;;;;;;;;;35.00;33.25;;;;;11.56;76.76;99727.25;5004914;28;8850;-78
2022/04/16 09:13:09;;;;;;;;;31.50;26.00;;;;;11.50;77.57;99712.47;4988301;28;8865;-78
2022/04/16 09:15:40;;;;;;;;;32.50;29.75;;;;;11.63;76.84;99722.91;4956399;28;8981;-77
2022/04/16 09:18:09;;;;;;;;;32.50;29.50;;;;;11.62;76.94;99700.25;4988407;28;8975;-77
2022/04/16 09:20:39;;;;;;;;;32.75;30.75;;;;;11.73;77.22;99708.09;5004606;28;9643;-77
2022/04/16 09:23:18;;;;;;;;;38.00;31.50;;;;;12.20;74.66;99710.56;4969094;28;8875;-77
2022/04/16 09:25:48;;;;;;;;;36.25;35.25;;;;;12.29;73.42;99715.75;4904976;28;8879;-78
2022/04/16 09:28:18;;;;;;;;;32.50;31.75;;;;;12.23;73.86;99712.28;4953691;28;8966;-80
2022/04/16 09:30:53;;;;;;;;;34.75;31.25;;;;;12.42;72.25;99699.97;5004396;28;8877;-78
2022/04/16 09:33:23;;;;;;;;;38.50;36.50;;;;;12.24;73.05;99698.34;4959302;28;10113;-78
2022/04/16 09:35:54;;;;;;;;;30.25;28.50;;;;;12.46;72.11;99696.47;5045265;28;8863;-78
2022/04/16 09:38:25;;;;;;;;;36.75;33.00;;;;;12.47;69.61;99704.28;5047026;28;8830;-79
2022/04/16 09:40:53;;;;;;;;;39.00;35.00;;;;;12.56;69.46;99700.78;5014266;28;9584;-78
2022/04/16 09:43:22;;;;;;;;;35.75;27.25;;;;;12.09;71.15;99699.28;5030988;28;8861;-78
2022/04/16 09:45:52;;;;;;;;;34.25;32.00;;;;;12.33;69.70;99694.81;5031576;28;8850;-79
2022/04/16 09:48:22;;;;;;;;;38.50;34.75;;;;;12.00;72.01;99712.38;5031037;28;8872;-80
2022/04/16 09:50:52;;;;;;;;;37.00;33.75;;;;;12.24;71.10;99698.34;5013913;28;8846;-78
2022/04/16 09:53:23;;;;;;;;;41.00;36.75;;;;;12.84;69.07;99693.59;5030611;28;8846;-79
2022/04/16 09:55:53;;;;;;;;;35.25;33.75;;;;;13.04;67.36;99689.94;5046521;28;8830;-79
2022/04/16 09:58:27;;;;;;;;;24.00;22.75;;;;;13.11;66.70;99686.41;5014340;28;9726;-77
2022/04/16 10:00:58;;;;;;;;;38.25;35.00;;;;;13.21;67.39;99679.34;5047452;28;8830;-79
2022/04/16 10:03:32;;;;;;;;;33.75;32.00;;;;;13.35;67.25;99687.13;4997101;28;8826;-78
2022/04/16 10:06:02;;;;;;;;;32.75;31.75;;;;;13.73;64.68;99683.22;5029895;28;8895;-77
2022/04/16 10:08:34;;;;;;;;;33.00;30.50;;;;;12.98;66.14;99695.25;5047113;28;8931;-77
2022/04/16 10:11:04;;;;;;;;;37.00;34.25;;;;;13.01;65.81;99690.84;5033119;28;8958;-80
2022/04/16 10:13:38;;;;;;;;;33.50;30.50;;;;;13.37;65.57;99680.97;5031709;28;8918;-78
2022/04/16 10:16:16;;;;;;;;;38.25;34.50;;;;;13.87;63.36;99676.06;4959143;28;8851;-79
2022/04/16 10:18:45;;;;;;;;;37.75;34.50;;;;;13.78;63.79;99674.44;5011099;28;8859;-77
2022/04/16 10:21:18;;;;;;;;;34.50;32.00;;;;;14.30;62.48;99666.78;5050268;28;8857;-79
2022/04/16 10:23:47;;;;;;;;;37.00;32.50;;;;;14.58;60.47;99667.28;5063621;28;9078;-78
2022/04/16 10:26:18;;;;;;;;;39.00;35.50;;;;;14.45;59.70;99665.69;5046280;28;8842;-77
2022/04/16 10:28:53;;;;;;;;;35.25;33.75;;;;;13.93;61.52;99672.50;5051021;28;8857;-79
2022/04/16 10:31:25;;;;;;;;;35.50;32.75;;;;;14.02;61.99;99662.75;5029728;28;8896;-76
2022/04/16 10:34:01;;;;;;;;;34.50;31.75;;;;;14.38;59.73;99664.91;5013789;28;8897;-78
2022/04/16 10:36:36;;;;;;;;;37.75;34.75;;;;;14.35;58.24;99652.72;4975342;28;8850;-80
2022/04/16 10:39:16;;;;;;;;;34.75;34.00;;;;;14.12;59.33;99653.03;5029935;28;8874;-78
2022/04/16 10:42:04;;;;;;;;;32.00;31.75;;;;;14.50;57.80;99642.88;5013692;28;8877;-79
2022/04/16 10:44:45;;;;;;;;;33.00;27.50;;;;;14.84;57.12;99637.13;5029392;28;8862;-79
2022/04/16 10:47:17;;;;;;;;;34.75;32.00;;;;;14.75;56.96;99628.50;5029986;28;8870;-79
2022/04/16 10:49:46;;;;;;;;;33.50;32.75;;;;;14.95;55.69;99632.56;5029797;28;8869;-79
2022/04/16 10:52:21;;;;;;;;;34.50;33.50;;;;;14.59;56.78;99632.25;5017000;28;8940;-78
2022/04/16 10:55:01;;;;;;;;;33.50;32.25;;;;;14.83;57.17;99638.88;5066482;28;8872;-78
2022/04/16 10:57:29;;;;;;;;;34.25;29.50;;;;;14.87;56.85;99651.06;5057242;28;8861;-79
2022/04/16 10:59:59;;;;;;;;;31.50;30.50;;;;;14.66;56.92;99647.03;5047927;28;8856;-78
2022/04/16 11:02:45;;;;;;;;;32.75;30.25;;;;;14.87;57.04;99642.34;5030022;28;8887;-76
2022/04/16 11:05:14;;;;;;;;;32.00;28.50;;;;;15.35;54.96;99645.00;5047100;28;8922;-80
2022/04/16 11:07:43;;;;;;;;;32.00;29.50;;;;;15.19;54.92;99639.16;5048528;28;8861;-79
2022/04/16 11:10:13;;;;;;;;;33.25;32.25;;;;;15.74;53.42;99634.63;5047201;28;8849;-76
2022/04/16 11:12:44;;;;;;;;;33.25;31.25;;;;;15.79;53.41;99631.00;5064025;28;8837;-78
2022/04/16 11:15:18;;;;;;;;;37.00;31.00;;;;;16.19;52.42;99629.31;5047252;28;8883;-77
2022/04/16 11:17:48;;;;;;;;;34.00;30.50;;;;;15.66;53.27;99633.91;5035519;28;8855;-77
2022/04/16 11:20:17;;;;;;;;;29.20;28.00;;;;;15.75;52.04;99626.72;5048126;28;9610;-78
2022/04/16 11:22:47;;;;;;;;;33.25;31.25;;;;;15.62;52.91;99632.25;5015006;28;8863;-78
2022/04/16 11:25:17;;;;;;;;;30.50;28.50;;;;;16.11;50.89;99626.84;5032660;28;8948;-79
2022/04/16 11:36:11;;;;;;;;;26.75;25.75;;;;;16.63;49.13;99614.22;4973388;28;8863;-79
2022/04/16 11:38:41;;;;;;;;;28.20;25.80;;;;;17.00;48.02;99610.72;5032315;28;8859;-78
2022/04/16 11:41:12;;;;;;;;;26.50;25.75;;;;;17.19;47.23;99607.63;4998261;28;8851;-76
2022/04/16 11:43:47;;;;;;;;;27.50;26.50;;;;;17.44;46.31;99597.25;5031273;28;9687;-78
2022/04/16 11:46:16;;;;;;;;;18.00;17.00;;;;;17.35;44.62;99598.38;5032455;28;8851;-78
2022/04/16 11:48:48;;;;;;;;;23.20;21.00;;;;;17.16;44.69;99600.63;5035436;28;8859;-79
2022/04/16 11:51:20;;;;;;;;;20.80;18.80;;;;;16.91;46.26;99600.41;5052963;28;8866;-79
2022/04/16 11:53:53;;;;;;;;;20.60;18.80;;;;;17.10;44.90;99593.75;5033210;28;8844;-78
2022/04/16 11:56:22;;;;;;;;;17.60;17.00;;;;;17.27;45.23;99595.94;5032826;28;9005;-77
2022/04/16 11:58:51;;;;;;;;;16.00;13.40;;;;;16.75;43.23;99592.88;5016737;28;9006;-76